METAR Data
IDs: Format: Raw Decoded Include TAF

Data at: 2023 UTC 21 Sep 2021

ETIC 211956Z AUTO 00000KT 9999 BKN120 07/06 A3038 RMK AO2 SLP296 T00700055 $